Time;durP1;ratioP1;P1;durP2;ratioP2;P2;SDS_P1;SDS_P2;PMS_P1;PMS_P2;Temp;Humidity;BMP_temperature;BMP_pressure;BME280_temperature;BME280_humidity;BME280_pressure;Samples;Min_cycle;Max_cycle;Signal;HPM_P1;HPM_P2
2021/04/30 00:00:48;;;;;;;;;;;;;;;;;;5039018;28;19998;-81
2021/04/30 00:03:13;;;;;;;;;;;;;;;;;;5057409;28;19912;-80
2021/04/30 00:05:38;;;;;;;;;;;;;;;;;;5075152;28;19912;-81
2021/04/30 00:08:03;;;;;;;;;;;;;;;;;;5058653;28;20690;-81
2021/04/30 00:10:29;;;;;;;;;;;;;;;;;;5075110;28;19920;-80
2021/04/30 00:12:54;;;;;;;;;;;;;;;;;;5074709;28;19939;-81
2021/04/30 00:15:19;;;;;;;;;;;;;;;;;;5041784;28;19977;-80
2021/04/30 00:17:45;;;;;;;;;;;;;;;;;;5058249;28;20393;-81
2021/04/30 00:20:10;;;;;;;;;;;;;;;;;;5074988;28;19916;-80
2021/04/30 00:22:36;;;;;;;;;;;;;;;;;;5041443;28;19948;-80
2021/04/30 00:25:01;;;;;;;;;;;;;;;;;;5038165;28;20339;-80
2021/04/30 00:27:26;;;;;;;;;;;;;;;;;;5037817;28;19962;-80
2021/04/30 00:29:51;;;;;;;;;;;;;;;;;;5054755;28;19952;-81
2021/04/30 00:32:17;;;;;;;;;;;;;;;;;;5037939;28;19928;-81
2021/04/30 00:34:42;;;;;;;;;;;;;;;;;;5038105;28;20390;-81
2021/04/30 00:37:07;;;;;;;;;;;;;;;;;;5037735;28;19916;-81
2021/04/30 00:39:33;;;;;;;;;;;;;;;;;;5037808;28;19938;-80
2021/04/30 00:41:58;;;;;;;;;;;;;;;;;;5054519;28;19954;-81
2021/04/30 00:44:23;;;;;;;;;;;;;;;;;;5037806;28;20401;-81
2021/04/30 00:46:49;;;;;;;;;;;;;;;;;;5037379;28;19973;-81
2021/04/30 00:49:14;;;;;;;;;;;;;;;;;;5037815;28;19966;-81
2021/04/30 00:51:39;;;;;;;;;;;;;;;;;;5037866;28;20020;-81
2021/04/30 00:54:05;;;;;;;;;;;;;;;;;;5054301;28;20011;-81
2021/04/30 00:56:31;;;;;;;;;;;;;;;;;;5021198;28;19995;-81
2021/04/30 00:58:56;;;;;;;;;;;;;;;;;;5036769;28;19912;-81
2021/04/30 01:01:21;;;;;;;;;;;;;;;;;;5041363;28;19973;-81
2021/04/30 01:03:48;;;;;;;;;;;;;;;;;;5057473;28;20206;-81
2021/04/30 01:06:13;;;;;;;;;;;;;;;;;;5074638;28;19913;-81
2021/04/30 01:08:39;;;;;;;;;;;;;;;;;;5040928;28;20373;-82
2021/04/30 01:11:04;;;;;;;;;;;;;;;;;;5056957;28;19920;-81
2021/04/30 01:13:29;;;;;;;;;;;;;;;;;;5057454;28;19923;-81
2021/04/30 01:15:55;;;;;;;;;;;;;;;;;;5057414;28;20307;-81
2021/04/30 01:18:20;;;;;;;;;;;;;;;;;;5057633;28;19916;-81
2021/04/30 01:20:45;;;;;;;;;;;;;;;;;;5056037;28;19916;-81
2021/04/30 01:23:10;;;;;;;;;;;;;;;;;;5037389;28;19919;-80
2021/04/30 01:25:37;;;;;;;;;;;;;;;;;;5037248;28;20003;-81
2021/04/30 01:28:03;;;;;;;;;;;;;;;;;;5021146;28;19913;-81
2021/04/30 01:30:29;;;;;;;;;;;;;;;;;;5037337;28;19938;-81
2021/04/30 01:32:54;;;;;;;;;;;;;;;;;;5020865;28;20418;-81
2021/04/30 01:35:27;;;;;;;;;;;;;;;;;;5020941;28;19924;-82
2021/04/30 01:37:52;;;;;;;;;;;;;;;;;;5020670;28;20282;-81
2021/04/30 01:40:18;;;;;;;;;;;;;;;;;;5037195;28;19923;-81
2021/04/30 01:42:57;;;;;;;;;;;;;;;;;;5036717;28;20390;-81
2021/04/30 01:45:22;;;;;;;;;;;;;;;;;;5054131;28;19920;-81
2021/04/30 01:47:47;;;;;;;;;;;;;;;;;;5037209;28;19921;-81
2021/04/30 01:50:13;;;;;;;;;;;;;;;;;;5053816;28;19916;-80
2021/04/30 01:52:38;;;;;;;;;;;;;;;;;;5020695;28;19916;-81
2021/04/30 01:55:03;;;;;;;;;;;;;;;;;;5037097;28;20382;-81
2021/04/30 01:57:28;;;;;;;;;;;;;;;;;;5037024;28;19916;-81
2021/04/30 01:59:54;;;;;;;;;;;;;;;;;;5037119;28;19921;-81
2021/04/30 02:02:19;;;;;;;;;;;;;;;;;;5048932;28;20370;-81
2021/04/30 02:04:44;;;;;;;;;;;;;;;;;;5056884;28;19916;-80
2021/04/30 02:07:09;;;;;;;;;;;;;;;;;;5073711;28;19912;-79
2021/04/30 02:09:35;;;;;;;;;;;;;;;;;;5057533;28;19934;-80
2021/04/30 02:12:00;;;;;;;;;;;;;;;;;;5077187;28;19922;-80
2021/04/30 02:14:26;;;;;;;;;;;;;;;;;;5077253;28;19912;-80
2021/04/30 02:16:51;;;;;;;;;;;;;;;;;;5077376;28;20019;-80
2021/04/30 02:19:16;;;;;;;;;;;;;;;;;;5060681;28;19927;-80
2021/04/30 02:21:41;;;;;;;;;;;;;;;;;;5051011;28;20320;-80
2021/04/30 02:24:07;;;;;;;;;;;;;;;;;;5040497;28;19956;-80
2021/04/30 02:26:32;;;;;;;;;;;;;;;;;;5057031;28;19912;-80
2021/04/30 02:28:57;;;;;;;;;;;;;;;;;;5040127;28;19916;-80
2021/04/30 02:31:23;;;;;;;;;;;;;;;;;;5057407;28;19913;-80
2021/04/30 02:33:48;;;;;;;;;;;;;;;;;;5023894;28;19962;-79
2021/04/30 02:36:13;;;;;;;;;;;;;;;;;;5040590;28;20390;-80
2021/04/30 02:38:39;;;;;;;;;;;;;;;;;;5023664;28;19923;-80
2021/04/30 02:41:04;;;;;;;;;;;;;;;;;;5023021;28;19943;-79
2021/04/30 02:43:29;;;;;;;;;;;;;;;;;;5023298;28;19974;-80
2021/04/30 02:45:56;;;;;;;;;;;;;;;;;;5040288;28;19916;-80
2021/04/30 02:48:25;;;;;;;;;;;;;;;;;;5040397;28;19995;-80
2021/04/30 02:50:50;;;;;;;;;;;;;;;;;;5041047;28;19912;-80
2021/04/30 02:53:15;;;;;;;;;;;;;;;;;;5039563;28;19920;-80
2021/04/30 02:55:41;;;;;;;;;;;;;;;;;;5039545;28;20331;-80
2021/04/30 02:58:09;;;;;;;;;;;;;;;;;;5039854;28;19916;-80
2021/04/30 03:00:34;;;;;;;;;;;;;;;;;;5023370;28;20007;-80
2021/04/30 03:03:00;;;;;;;;;;;;;;;;;;5053507;28;20374;-80
2021/04/30 03:05:25;;;;;;;;;;;;;;;;;;5056812;28;19913;-80
2021/04/30 03:07:51;;;;;;;;;;;;;;;;;;5056125;28;20374;-80
2021/04/30 03:10:16;;;;;;;;;;;;;;;;;;5039173;28;19920;-80
2021/04/30 03:12:41;;;;;;;;;;;;;;;;;;5038948;28;20278;-79
2021/04/30 03:15:07;;;;;;;;;;;;;;;;;;5039659;28;20381;-80
2021/04/30 03:17:32;;;;;;;;;;;;;;;;;;5056184;28;19942;-80
2021/04/30 03:19:57;;;;;;;;;;;;;;;;;;5056127;28;19966;-79
2021/04/30 03:22:23;;;;;;;;;;;;;;;;;;5038347;28;19962;-80
2021/04/30 03:24:48;;;;;;;;;;;;;;;;;;5039434;28;19916;-80
2021/04/30 03:27:13;;;;;;;;;;;;;;;;;;5038989;28;19982;-80
2021/04/30 03:29:39;;;;;;;;;;;;;;;;;;5039475;28;19919;-80
2021/04/30 03:32:07;;;;;;;;;;;;;;;;;;5022728;28;19920;-79
2021/04/30 03:34:32;;;;;;;;;;;;;;;;;;5039805;28;19936;-79
2021/04/30 03:36:57;;;;;;;;;;;;;;;;;;5039122;28;20367;-79
2021/04/30 03:39:23;;;;;;;;;;;;;;;;;;5038673;28;19960;-80
2021/04/30 03:41:48;;;;;;;;;;;;;;;;;;5054898;28;19924;-80
2021/04/30 03:44:13;;;;;;;;;;;;;;;;;;5038960;28;19912;-80
2021/04/30 03:46:38;;;;;;;;;;;;;;;;;;5055456;28;19916;-79
2021/04/30 03:49:05;;;;;;;;;;;;;;;;;;5055681;28;20009;-80
2021/04/30 03:51:30;;;;;;;;;;;;;;;;;;5055882;28;20468;-79
2021/04/30 03:53:55;;;;;;;;;;;;;;;;;;5022275;28;19994;-79
2021/04/30 03:56:21;;;;;;;;;;;;;;;;;;5055061;28;20289;-81
2021/04/30 03:58:46;;;;;;;;;;;;;;;;;;5038630;28;19912;-80
2021/04/30 04:01:11;;;;;;;;;;;;;;;;;;5057521;28;19957;-79
2021/04/30 04:03:37;;;;;;;;;;;;;;;;;;5058332;28;19912;-80
2021/04/30 04:06:02;;;;;;;;;;;;;;;;;;5058423;28;19908;-80
2021/04/30 04:08:29;;;;;;;;;;;;;;;;;;5041676;28;19912;-80
2021/04/30 04:10:54;;;;;;;;;;;;;;;;;;5041423;28;19908;-80
2021/04/30 04:13:20;;;;;;;;;;;;;;;;;;5041515;28;19924;-80
2021/04/30 04:15:45;;;;;;;;;;;;;;;;;;5058873;28;20265;-80
2021/04/30 04:18:11;;;;;;;;;;;;;;;;;;5058539;28;19920;-80
2021/04/30 04:20:36;;;;;;;;;;;;;;;;;;5058416;28;20361;-80
2021/04/30 04:23:01;;;;;;;;;;;;;;;;;;5037871;28;20374;-80
2021/04/30 04:25:26;;;;;;;;;;;;;;;;;;5021503;28;19948;-81
2021/04/30 04:27:52;;;;;;;;;;;;;;;;;;5054713;28;19920;-80
2021/04/30 04:30:17;;;;;;;;;;;;;;;;;;5038111;28;20480;-80
2021/04/30 04:32:42;;;;;;;;;;;;;;;;;;5037833;28;20001;-80
2021/04/30 04:35:08;;;;;;;;;;;;;;;;;;5038948;28;19916;-80
2021/04/30 04:37:33;;;;;;;;;;;;;;;;;;5054518;28;19912;-80
2021/04/30 04:39:58;;;;;;;;;;;;;;;;;;5046189;28;19924;-80
2021/04/30 04:42:23;;;;;;;;;;;;;;;;;;5100928;22;20469;-80
2021/04/30 04:44:49;;;;;;;;;;;;;;;;;;5094222;28;19926;-79
2021/04/30 04:47:14;;;;;;;;;;;;;;;;;;5077622;28;20040;-81
2021/04/30 04:49:39;;;;;;;;;;;;;;;;;;5061147;28;19919;-80
2021/04/30 04:52:04;;;;;;;;;;;;;;;;;;5095044;28;19961;-79
2021/04/30 04:54:31;;;;;;;;;;;;;;;;;;5077447;28;20293;-80
2021/04/30 04:56:56;;;;;;;;;;;;;;;;;;5078011;28;19938;-81
2021/04/30 04:59:22;;;;;;;;;;;;;;;;;;5094819;28;20420;-80
2021/04/30 05:01:47;;;;;;;;;;;;;;;;;;5070345;28;19916;-80
2021/04/30 05:04:12;;;;;;;;;;;;;;;;;;5092196;28;19916;-79
2021/04/30 05:06:37;;;;;;;;;;;;;;;;;;5057876;28;19923;-82
2021/04/30 05:09:03;;;;;;;;;;;;;;;;;;5074262;28;19922;-80
2021/04/30 05:11:28;;;;;;;;;;;;;;;;;;5040126;28;20006;-80
2021/04/30 05:13:53;;;;;;;;;;;;;;;;;;5074104;28;19964;-81
2021/04/30 05:16:19;;;;;;;;;;;;;;;;;;5057979;28;19916;-81
2021/04/30 05:18:44;;;;;;;;;;;;;;;;;;5074068;28;20368;-81
2021/04/30 05:21:11;;;;;;;;;;;;;;;;;;5061630;28;19920;-81
2021/04/30 05:23:37;;;;;;;;;;;;;;;;;;5094407;28;19961;-81
2021/04/30 05:26:02;;;;;;;;;;;;;;;;;;5077626;28;20262;-80
2021/04/30 05:28:27;;;;;;;;;;;;;;;;;;5077277;28;19915;-79
2021/04/30 05:30:52;;;;;;;;;;;;;;;;;;5077684;28;19912;-81
2021/04/30 05:33:18;;;;;;;;;;;;;;;;;;5077314;28;19923;-80
2021/04/30 05:35:43;;;;;;;;;;;;;;;;;;5060668;28;19911;-81
2021/04/30 05:38:08;;;;;;;;;;;;;;;;;;5094044;28;19915;-80
2021/04/30 05:40:34;;;;;;;;;;;;;;;;;;5076782;28;19954;-81
2021/04/30 05:43:00;;;;;;;;;;;;;;;;;;5093796;28;19963;-80
2021/04/30 05:45:25;;;;;;;;;;;;;;;;;;5079498;28;19958;-80
2021/04/30 05:47:50;;;;;;;;;;;;;;;;;;5081549;28;19916;-81
2021/04/30 05:50:16;;;;;;;;;;;;;;;;;;5080916;28;19924;-81
2021/04/30 05:52:41;;;;;;;;;;;;;;;;;;5080933;28;19927;-81
2021/04/30 05:55:06;;;;;;;;;;;;;;;;;;5080925;28;20010;-81
2021/04/30 05:57:32;;;;;;;;;;;;;;;;;;5078707;28;19976;-81
2021/04/30 05:59:57;;;;;;;;;;;;;;;;;;5079320;28;19923;-81
2021/04/30 06:02:22;;;;;;;;;;;;;;;;;;5076467;28;19916;-80
2021/04/30 06:04:48;;;;;;;;;;;;;;;;;;5094440;28;19922;-80
2021/04/30 06:07:13;;;;;;;;;;;;;;;;;;5094606;28;19947;-79
2021/04/30 06:09:38;;;;;;;;;;;;;;;;;;5094275;28;19916;-81
2021/04/30 06:12:04;;;;;;;;;;;;;;;;;;5076921;28;19924;-80
2021/04/30 06:14:30;;;;;;;;;;;;;;;;;;5094887;28;20015;-80
2021/04/30 06:17:01;;;;;;;;;;;;;;;;;;5094001;28;19927;-81
2021/04/30 06:19:27;;;;;;;;;;;;;;;;;;5094696;28;19916;-80
2021/04/30 06:21:52;;;;;;;;;;;;;;;;;;5087290;28;20278;-80
2021/04/30 06:24:18;;;;;;;;;;;;;;;;;;5080534;28;19916;-81
2021/04/30 06:26:43;;;;;;;;;;;;;;;;;;5080822;28;19947;-80
2021/04/30 06:29:08;;;;;;;;;;;;;;;;;;5097612;28;20263;-80
2021/04/30 06:31:34;;;;;;;;;;;;;;;;;;5063327;28;19916;-81
2021/04/30 06:34:00;;;;;;;;;;;;;;;;;;5063625;28;20347;-80
2021/04/30 06:36:25;;;;;;;;;;;;;;;;;;5097074;28;19976;-80
2021/04/30 06:38:50;;;;;;;;;;;;;;;;;;5097226;28;19923;-80
2021/04/30 06:41:15;;;;;;;;;;;;;;;;;;5062536;28;19985;-81
2021/04/30 06:43:41;;;;;;;;;;;;;;;;;;5079944;28;19924;-79
2021/04/30 06:46:06;;;;;;;;;;;;;;;;;;5080468;28;19915;-80
2021/04/30 06:48:31;;;;;;;;;;;;;;;;;;5096997;28;20335;-80
2021/04/30 06:50:56;;;;;;;;;;;;;;;;;;5080021;28;19919;-80
2021/04/30 06:53:22;;;;;;;;;;;;;;;;;;5079737;28;20011;-80
2021/04/30 06:55:47;;;;;;;;;;;;;;;;;;5062043;28;19997;-80
2021/04/30 06:58:12;;;;;;;;;;;;;;;;;;5062755;28;19969;-80
2021/04/30 07:00:37;;;;;;;;;;;;;;;;;;5079983;28;19964;-79
2021/04/30 07:03:03;;;;;;;;;;;;;;;;;;5089964;28;20282;-80
2021/04/30 07:05:28;;;;;;;;;;;;;;;;;;5059053;28;19932;-79
2021/04/30 07:07:56;;;;;;;;;;;;;;;;;;5059671;28;19916;-79
2021/04/30 07:10:23;;;;;;;;;;;;;;;;;;5076463;28;19917;-78
2021/04/30 07:12:48;;;;;;;;;;;;;;;;;;5076058;28;19974;-79
2021/04/30 07:15:13;;;;;;;;;;;;;;;;;;5075846;28;20374;-79
2021/04/30 07:17:39;;;;;;;;;;;;;;;;;;5076131;28;19917;-78
2021/04/30 07:20:05;;;;;;;;;;;;;;;;;;5058981;28;19920;-78
2021/04/30 07:22:30;;;;;;;;;;;;;;;;;;5079409;28;19919;-78
2021/04/30 07:24:55;;;;;;;;;;;;;;;;;;5114387;28;19915;-79
2021/04/30 07:27:20;;;;;;;;;;;;;;;;;;5096009;28;19959;-80
2021/04/30 07:29:46;;;;;;;;;;;;;;;;;;5079146;28;20349;-79
2021/04/30 07:32:11;;;;;;;;;;;;;;;;;;5095775;28;20021;-80
2021/04/30 07:34:37;;;;;;;;;;;;;;;;;;5079223;28;19916;-80
2021/04/30 07:37:02;;;;;;;;;;;;;;;;;;5079209;28;20010;-79
2021/04/30 07:39:27;;;;;;;;;;;;;;;;;;5095545;28;19924;-78
2021/04/30 07:41:53;;;;;;;;;;;;;;;;;;5061865;28;19993;-80
2021/04/30 07:44:18;;;;;;;;;;;;;;;;;;5079109;28;19923;-80
2021/04/30 07:46:44;;;;;;;;;;;;;;;;;;5061987;28;19922;-79
2021/04/30 07:49:09;;;;;;;;;;;;;;;;;;5078135;28;19920;-79
2021/04/30 07:51:34;;;;;;;;;;;;;;;;;;5068826;28;19931;-79
2021/04/30 07:54:00;;;;;;;;;;;;;;;;;;5068510;28;19920;-79
2021/04/30 07:56:25;;;;;;;;;;;;;;;;;;5051264;28;19947;-78
2021/04/30 07:58:50;;;;;;;;;;;;;;;;;;5102709;28;20309;-78
2021/04/30 08:01:15;;;;;;;;;;;;;;;;;;5083500;28;19931;-79
2021/04/30 08:03:41;;;;;;;;;;;;;;;;;;5085034;28;20428;-78
2021/04/30 08:06:06;;;;;;;;;;;;;;;;;;5087158;28;20017;-79
2021/04/30 08:08:31;;;;;;;;;;;;;;;;;;5069943;28;19920;-79
2021/04/30 08:10:56;;;;;;;;;;;;;;;;;;5088247;28;19917;-80
2021/04/30 08:13:22;;;;;;;;;;;;;;;;;;5100929;28;19969;-80
2021/04/30 08:15:47;;;;;;;;;;;;;;;;;;5083775;28;20447;-80
2021/04/30 08:18:13;;;;;;;;;;;;;;;;;;5067848;28;19968;-81
2021/04/30 08:20:38;;;;;;;;;;;;;;;;;;5067186;28;19916;-78
2021/04/30 08:23:04;;;;;;;;;;;;;;;;;;5095305;28;20301;-79
2021/04/30 08:25:29;;;;;;;;;;;;;;;;;;5078287;28;19920;-79
2021/04/30 08:27:54;;;;;;;;;;;;;;;;;;5094983;28;20018;-79
2021/04/30 08:30:19;;;;;;;;;;;;;;;;;;5077678;28;19926;-80
2021/04/30 08:32:45;;;;;;;;;;;;;;;;;;5078164;28;20442;-79
2021/04/30 08:35:10;;;;;;;;;;;;;;;;;;5077769;28;20004;-79
2021/04/30 08:37:35;;;;;;;;;;;;;;;;;;5078193;28;19961;-79
2021/04/30 08:40:01;;;;;;;;;;;;;;;;;;5094620;28;19949;-79
2021/04/30 08:42:27;;;;;;;;;;;;;;;;;;5094640;28;20411;-79
2021/04/30 08:44:52;;;;;;;;;;;;;;;;;;5077986;28;19927;-79
2021/04/30 08:47:17;;;;;;;;;;;;;;;;;;5077599;28;20301;-80
2021/04/30 08:49:43;;;;;;;;;;;;;;;;;;5061100;28;20006;-79
2021/04/30 08:52:09;;;;;;;;;;;;;;;;;;5078015;28;19922;-79
2021/04/30 08:54:36;;;;;;;;;;;;;;;;;;5095005;28;20331;-79
2021/04/30 08:57:03;;;;;;;;;;;;;;;;;;5095009;28;19966;-79
2021/04/30 08:59:28;;;;;;;;;;;;;;;;;;5077700;28;20377;-79
2021/04/30 09:01:53;;;;;;;;;;;;;;;;;;5086293;28;19930;-79
2021/04/30 09:04:19;;;;;;;;;;;;;;;;;;5057360;28;19916;-80
2021/04/30 09:06:45;;;;;;;;;;;;;;;;;;5057540;28;19916;-79
2021/04/30 09:09:14;;;;;;;;;;;;;;;;;;5074131;28;19920;-79
2021/04/30 09:11:47;;;;;;;;;;;;;;;;;;5057007;28;19924;-79
2021/04/30 09:14:22;;;;;;;;;;;;;;;;;;5057270;28;20043;-79
2021/04/30 09:17:00;;;;;;;;;;;;;;;;;;5092017;28;19922;-79
2021/04/30 09:19:35;;;;;;;;;;;;;;;;;;5039826;28;19927;-79
2021/04/30 09:22:02;;;;;;;;;;;;;;;;;;5085923;28;20460;-80
2021/04/30 09:24:28;;;;;;;;;;;;;;;;;;5077477;28;19969;-80
2021/04/30 09:26:53;;;;;;;;;;;;;;;;;;5077594;28;19915;-81
2021/04/30 09:29:19;;;;;;;;;;;;;;;;;;5077351;28;20346;-79
2021/04/30 09:31:44;;;;;;;;;;;;;;;;;;5079516;28;19916;-79
2021/04/30 09:34:13;;;;;;;;;;;;;;;;;;5060596;28;19920;-79
2021/04/30 09:36:57;;;;;;;;;;;;;;;;;;5093992;28;19916;-80
2021/04/30 09:39:22;;;;;;;;;;;;;;;;;;5093918;28;20010;-79
2021/04/30 09:42:06;;;;;;;;;;;;;;;;;;5076474;28;20006;-80
2021/04/30 09:44:32;;;;;;;;;;;;;;;;;;5112853;28;20011;-79
2021/04/30 09:47:00;;;;;;;;;;;;;;;;;;5094261;28;20448;-79
2021/04/30 09:49:25;;;;;;;;;;;;;;;;;;5072561;28;19924;-79
2021/04/30 09:51:51;;;;;;;;;;;;;;;;;;5074032;28;19923;-79
2021/04/30 09:54:24;;;;;;;;;;;;;;;;;;5073374;28;19927;-79
2021/04/30 09:57:02;;;;;;;;;;;;;;;;;;5073156;28;19916;-79
2021/04/30 09:59:27;;;;;;;;;;;;;;;;;;5090354;28;19942;-79
2021/04/30 10:02:01;;;;;;;;;;;;;;;;;;5073851;28;19916;-80
2021/04/30 10:04:31;;;;;;;;;;;;;;;;;;5090278;28;19916;-79
2021/04/30 10:06:56;;;;;;;;;;;;;;;;;;5094192;28;20432;-80
2021/04/30 10:09:24;;;;;;;;;;;;;;;;;;5076926;28;19958;-80
2021/04/30 10:11:49;;;;;;;;;;;;;;;;;;5093125;28;19924;-78
2021/04/30 10:14:15;;;;;;;;;;;;;;;;;;5093952;28;19949;-78
2021/04/30 10:16:40;;;;;;;;;;;;;;;;;;5090380;28;19924;-78
2021/04/30 10:19:06;;;;;;;;;;;;;;;;;;5057343;28;19920;-79
2021/04/30 10:21:32;;;;;;;;;;;;;;;;;;5065890;28;19926;-80
2021/04/30 10:23:57;;;;;;;;;;;;;;;;;;5077314;28;19916;-78
2021/04/30 10:26:22;;;;;;;;;;;;;;;;;;5076206;28;19920;-78
2021/04/30 10:28:54;;;;;;;;;;;;;;;;;;5093393;28;20416;-79
2021/04/30 10:31:26;;;;;;;;;;;;;;;;;;5078753;28;19923;-79
2021/04/30 10:33:53;;;;;;;;;;;;;;;;;;5096841;28;19919;-80
2021/04/30 10:36:42;;;;;;;;;;;;;;;;;;5080075;28;19986;-81
2021/04/30 10:39:08;;;;;;;;;;;;;;;;;;5086688;28;19920;-80
2021/04/30 10:41:39;;;;;;;;;;;;;;;;;;5061418;28;20007;-80
2021/04/30 10:44:14;;;;;;;;;;;;;;;;;;5076283;28;20455;-79
2021/04/30 10:46:40;;;;;;;;;;;;;;;;;;5079356;28;20282;-80
2021/04/30 10:49:11;;;;;;;;;;;;;;;;;;5080041;28;19993;-81
2021/04/30 10:51:37;;;;;;;;;;;;;;;;;;5115353;28;20006;-80
2021/04/30 10:54:21;;;;;;;;;;;;;;;;;;5080026;28;20020;-80
2021/04/30 10:56:48;;;;;;;;;;;;;;;;;;5096196;28;19931;-80
2021/04/30 10:59:18;;;;;;;;;;;;;;;;;;5079804;28;20298;-80
2021/04/30 11:01:47;;;;;;;;;;;;;;;;;;5095974;28;19927;-80
2021/04/30 11:04:13;;;;;;;;;;;;;;;;;;5079784;28;19922;-80
2021/04/30 11:06:46;;;;;;;;;;;;;;;;;;5076430;28;19934;-80
2021/04/30 11:09:15;;;;;;;;;;;;;;;;;;5079252;28;20007;-80
2021/04/30 11:11:44;;;;;;;;;;;;;;;;;;5062404;28;20314;-80
2021/04/30 11:14:28;;;;;;;;;;;;;;;;;;5077656;28;20337;-80
2021/04/30 11:16:54;;;;;;;;;;;;;;;;;;5063015;28;20389;-80
2021/04/30 11:19:20;;;;;;;;;;;;;;;;;;5060595;28;19926;-82
2021/04/30 11:21:52;;;;;;;;;;;;;;;;;;5085520;28;19959;-82
2021/04/30 11:24:30;;;;;;;;;;;;;;;;;;5062766;28;19981;-84
2021/04/30 11:27:10;;;;;;;;;;;;;;;;;;5096198;28;19931;-82
2021/04/30 11:29:36;;;;;;;;;;;;;;;;;;5096361;28;19938;-83
2021/04/30 11:32:21;;;;;;;;;;;;;;;;;;5079265;28;20409;-82
2021/04/30 11:34:57;;;;;;;;;;;;;;;;;;5096193;28;20282;-83
2021/04/30 11:37:23;;;;;;;;;;;;;;;;;;5062471;28;19920;-83
2021/04/30 11:39:48;;;;;;;;;;;;;;;;;;5061873;28;19943;-83
2021/04/30 11:42:14;;;;;;;;;;;;;;;;;;5078154;28;19930;-83
2021/04/30 11:44:42;;;;;;;;;;;;;;;;;;5079240;28;20010;-83
2021/04/30 11:47:10;;;;;;;;;;;;;;;;;;5062484;28;20377;-83
2021/04/30 11:49:36;;;;;;;;;;;;;;;;;;5096104;28;19926;-82
2021/04/30 11:52:02;;;;;;;;;;;;;;;;;;5062221;28;19915;-83
2021/04/30 11:54:28;;;;;;;;;;;;;;;;;;5078790;28;19916;-82
2021/04/30 11:57:00;;;;;;;;;;;;;;;;;;5078591;28;19923;-82
2021/04/30 11:59:26;;;;;;;;;;;;;;;;;;5095490;28;19920;-82
2021/04/30 12:01:52;;;;;;;;;;;;;;;;;;5095371;28;20356;-83
2021/04/30 12:04:32;;;;;;;;;;;;;;;;;;5095515;28;19919;-82
2021/04/30 12:06:58;;;;;;;;;;;;;;;;;;5078937;28;19923;-83
2021/04/30 12:09:23;;;;;;;;;;;;;;;;;;5061076;28;19927;-83
2021/04/30 12:11:48;;;;;;;;;;;;;;;;;;5061384;28;19935;-83
2021/04/30 12:14:13;;;;;;;;;;;;;;;;;;5078615;28;19916;-83
2021/04/30 12:16:39;;;;;;;;;;;;;;;;;;5095249;28;19922;-82
2021/04/30 12:19:04;;;;;;;;;;;;;;;;;;5078305;28;20005;-84
2021/04/30 12:21:33;;;;;;;;;;;;;;;;;;5094822;28;19989;-82
2021/04/30 12:23:58;;;;;;;;;;;;;;;;;;5095148;28;19923;-82
2021/04/30 12:26:27;;;;;;;;;;;;;;;;;;5094799;28;20301;-82
2021/04/30 12:28:55;;;;;;;;;;;;;;;;;;5060995;28;19920;-82
2021/04/30 12:31:20;;;;;;;;;;;;;;;;;;5061696;28;20423;-83
2021/04/30 12:33:47;;;;;;;;;;;;;;;;;;5077919;28;19920;-82
2021/04/30 12:36:21;;;;;;;;;;;;;;;;;;5095169;28;19920;-82
2021/04/30 12:38:46;;;;;;;;;;;;;;;;;;5078010;28;19957;-82
2021/04/30 12:41:12;;;;;;;;;;;;;;;;;;5094269;28;20321;-82
2021/04/30 12:43:39;;;;;;;;;;;;;;;;;;5094993;28;19926;-83
2021/04/30 12:46:14;;;;;;;;;;;;;;;;;;5061422;28;20456;-82
2021/04/30 12:48:40;;;;;;;;;;;;;;;;;;5094595;28;20378;-82
2021/04/30 12:51:07;;;;;;;;;;;;;;;;;;5094676;28;19926;-82
2021/04/30 12:53:32;;;;;;;;;;;;;;;;;;5093712;28;20029;-82
2021/04/30 12:55:57;;;;;;;;;;;;;;;;;;5094209;28;20007;-82
2021/04/30 12:58:22;;;;;;;;;;;;;;;;;;5077699;28;20381;-83
2021/04/30 13:00:51;;;;;;;;;;;;;;;;;;5077804;28;19916;-82
2021/04/30 13:03:16;;;;;;;;;;;;;;;;;;5076909;28;19945;-82
2021/04/30 13:05:42;;;;;;;;;;;;;;;;;;5077486;28;19924;-83
2021/04/30 13:08:07;;;;;;;;;;;;;;;;;;5077604;28;20373;-82
2021/04/30 13:10:33;;;;;;;;;;;;;;;;;;5077234;28;20001;-83
2021/04/30 13:13:02;;;;;;;;;;;;;;;;;;5094798;28;19924;-83
2021/04/30 13:15:28;;;;;;;;;;;;;;;;;;5077787;28;19916;-83
2021/04/30 13:17:59;;;;;;;;;;;;;;;;;;5094264;28;19977;-82
2021/04/30 13:20:30;;;;;;;;;;;;;;;;;;5061107;28;20006;-83
2021/04/30 13:23:05;;;;;;;;;;;;;;;;;;5060962;28;20373;-83
2021/04/30 13:25:31;;;;;;;;;;;;;;;;;;5077374;28;19924;-83
2021/04/30 13:27:56;;;;;;;;;;;;;;;;;;5077496;28;20434;-83
2021/04/30 13:30:35;;;;;;;;;;;;;;;;;;5077462;28;19919;-83
2021/04/30 13:33:16;;;;;;;;;;;;;;;;;;5077243;28;19963;-83
2021/04/30 13:35:41;;;;;;;;;;;;;;;;;;5093878;28;20350;-83
2021/04/30 13:38:06;;;;;;;;;;;;;;;;;;5077519;28;19920;-83
2021/04/30 13:40:31;;;;;;;;;;;;;;;;;;5076902;28;19919;-82
2021/04/30 13:43:00;;;;;;;;;;;;;;;;;;5076733;28;19923;-83
2021/04/30 13:45:25;;;;;;;;;;;;;;;;;;5061077;28;19924;-82
2021/04/30 13:47:51;;;;;;;;;;;;;;;;;;5077204;28;20262;-83
2021/04/30 13:50:23;;;;;;;;;;;;;;;;;;5077045;28;20312;-82
2021/04/30 13:52:48;;;;;;;;;;;;;;;;;;5077246;28;19942;-83
2021/04/30 13:55:14;;;;;;;;;;;;;;;;;;5076888;28;20336;-83
2021/04/30 13:57:42;;;;;;;;;;;;;;;;;;5077588;28;19919;-83
2021/04/30 14:00:08;;;;;;;;;;;;;;;;;;5076979;28;19916;-83
2021/04/30 14:02:33;;;;;;;;;;;;;;;;;;5093722;28;19923;-83
2021/04/30 14:04:59;;;;;;;;;;;;;;;;;;5094132;28;19916;-83
2021/04/30 14:07:25;;;;;;;;;;;;;;;;;;5064331;28;19923;-83
2021/04/30 14:09:50;;;;;;;;;;;;;;;;;;5097228;28;19920;-83
2021/04/30 14:12:16;;;;;;;;;;;;;;;;;;5080551;28;19936;-83
2021/04/30 14:14:42;;;;;;;;;;;;;;;;;;5080889;28;20008;-83
2021/04/30 14:17:07;;;;;;;;;;;;;;;;;;5080658;28;20403;-82
2021/04/30 14:19:32;;;;;;;;;;;;;;;;;;5096956;28;19927;-82
2021/04/30 14:22:00;;;;;;;;;;;;;;;;;;5063865;28;19916;-83
2021/04/30 14:24:26;;;;;;;;;;;;;;;;;;5081106;28;19972;-82
2021/04/30 14:26:51;;;;;;;;;;;;;;;;;;5080210;28;19915;-83
2021/04/30 14:29:17;;;;;;;;;;;;;;;;;;5080570;28;19930;-83
2021/04/30 14:31:42;;;;;;;;;;;;;;;;;;5080620;28;19919;-82
2021/04/30 14:34:07;;;;;;;;;;;;;;;;;;5097175;28;19915;-82
2021/04/30 14:36:33;;;;;;;;;;;;;;;;;;5097696;28;19916;-82
2021/04/30 14:38:58;;;;;;;;;;;;;;;;;;5097163;28;19915;-83
2021/04/30 14:41:23;;;;;;;;;;;;;;;;;;5062546;28;19954;-82
2021/04/30 14:43:49;;;;;;;;;;;;;;;;;;5080166;28;20301;-82
2021/04/30 14:46:14;;;;;;;;;;;;;;;;;;5097103;28;19962;-83
2021/04/30 14:48:39;;;;;;;;;;;;;;;;;;5080008;28;19923;-82
2021/04/30 14:51:04;;;;;;;;;;;;;;;;;;5097576;28;19953;-82
2021/04/30 14:53:30;;;;;;;;;;;;;;;;;;5080095;28;19920;-82
2021/04/30 14:55:55;;;;;;;;;;;;;;;;;;5079864;28;20313;-82
2021/04/30 14:58:20;;;;;;;;;;;;;;;;;;5079983;28;19945;-82
2021/04/30 15:00:46;;;;;;;;;;;;;;;;;;5096682;28;20301;-83
2021/04/30 15:03:11;;;;;;;;;;;;;;;;;;5062249;28;19959;-82
2021/04/30 15:05:37;;;;;;;;;;;;;;;;;;5080162;28;19916;-82
2021/04/30 15:08:02;;;;;;;;;;;;;;;;;;5080008;28;19954;-83
2021/04/30 15:10:27;;;;;;;;;;;;;;;;;;5096041;28;20450;-82
2021/04/30 15:12:53;;;;;;;;;;;;;;;;;;5096539;28;19926;-82
2021/04/30 15:15:18;;;;;;;;;;;;;;;;;;5096379;28;20413;-82
2021/04/30 15:17:43;;;;;;;;;;;;;;;;;;5078098;28;20012;-82
2021/04/30 15:20:09;;;;;;;;;;;;;;;;;;5079763;28;19916;-82
2021/04/30 15:22:34;;;;;;;;;;;;;;;;;;5079282;28;19916;-82
2021/04/30 15:24:59;;;;;;;;;;;;;;;;;;5079292;28;19915;-82
2021/04/30 15:27:25;;;;;;;;;;;;;;;;;;5079525;28;19915;-82
2021/04/30 15:29:50;;;;;;;;;;;;;;;;;;5096308;28;19942;-82
2021/04/30 15:32:16;;;;;;;;;;;;;;;;;;5079045;28;19923;-83
2021/04/30 15:34:41;;;;;;;;;;;;;;;;;;5079335;28;20343;-82
2021/04/30 15:37:06;;;;;;;;;;;;;;;;;;5079218;28;19922;-82
2021/04/30 15:39:31;;;;;;;;;;;;;;;;;;5078770;28;19920;-82
2021/04/30 15:41:57;;;;;;;;;;;;;;;;;;5079018;28;20011;-82
2021/04/30 15:44:22;;;;;;;;;;;;;;;;;;5095767;28;20435;-82
2021/04/30 15:46:47;;;;;;;;;;;;;;;;;;5078956;28;19957;-82
2021/04/30 15:49:13;;;;;;;;;;;;;;;;;;5078874;28;20285;-82
2021/04/30 15:51:38;;;;;;;;;;;;;;;;;;5078670;28;19916;-82
2021/04/30 15:54:07;;;;;;;;;;;;;;;;;;5078873;28;20313;-82
2021/04/30 15:56:32;;;;;;;;;;;;;;;;;;5079497;28;20354;-82
2021/04/30 15:58:57;;;;;;;;;;;;;;;;;;5095693;28;19916;-82
2021/04/30 16:01:22;;;;;;;;;;;;;;;;;;5094851;28;19915;-83
2021/04/30 16:03:48;;;;;;;;;;;;;;;;;;5095629;28;19940;-82
2021/04/30 16:06:13;;;;;;;;;;;;;;;;;;5061878;28;19916;-83
2021/04/30 16:08:38;;;;;;;;;;;;;;;;;;5095453;28;19955;-83
2021/04/30 16:11:03;;;;;;;;;;;;;;;;;;5095873;28;20293;-86
2021/04/30 16:13:29;;;;;;;;;;;;;;;;;;5061788;28;19923;-86
2021/04/30 16:15:54;;;;;;;;;;;;;;;;;;5062176;28;19923;-86
2021/04/30 16:18:22;;;;;;;;;;;;;;;;;;5062081;28;20340;-86
2021/04/30 16:20:48;;;;;;;;;;;;;;;;;;5078881;28;19915;-86
2021/04/30 16:23:13;;;;;;;;;;;;;;;;;;5061626;28;20393;-86
2021/04/30 16:25:38;;;;;;;;;;;;;;;;;;5061657;28;20382;-85
2021/04/30 16:28:04;;;;;;;;;;;;;;;;;;5061344;28;20388;-86
2021/04/30 16:30:29;;;;;;;;;;;;;;;;;;5059074;28;20012;-84
2021/04/30 16:32:54;;;;;;;;;;;;;;;;;;5075339;28;19920;-84
2021/04/30 16:35:20;;;;;;;;;;;;;;;;;;5060247;28;20394;-85
2021/04/30 16:37:45;;;;;;;;;;;;;;;;;;5061111;28;19919;-85
2021/04/30 16:40:12;;;;;;;;;;;;;;;;;;5077674;28;20389;-87